Youngsville, LA

9:56 AM CST on February 08, 2016 (GMT -0600)
Countryview | | Change Station
CLOSE
Current Station
Personal Weather Station
Location: Youngsville, LA
Elevation: 33 ft
Nearby Weather Stations
Active Advisory: Wind Advisory

Elev 33 ft 30.07 °N, 92.04 °W | Updated 16 seconds ago

Clear
Clear
52.2 °F
Feels Like 52.2 °F
N
6.9
Wind Variable Wind from WNW
Gusts 20.0 mph

Today
High -- | Low -- °F
--% Chance of Precip.
Yesterday
High -- | Low -- °F
Precip. -- in
Pressure 30.21 in
Visibility 10.0 miles
Clouds Clear
Dew Point 32 °F
Humidity 47%
Rainfall 0.00 in
Snow Depth Not available.
6:54 AM 5:50 PM
New Moon, 0% visible
METAR KLFT 081553Z 32015G25KT 10SM CLR 12/M03 A3021 RMK AO2 SLP228 T01221033
Pressure 30.21 in
Visibility 10.0 miles
Clouds Clear
Dew Point 32 °F
Humidity 47%
Rainfall 0.00 in
Snow Depth Not available.
6:54 AM 5:50 PM
New Moon, 0% visible
METAR KLFT 081553Z 32015G25KT 10SM CLR 12/M03 A3021 RMK AO2 SLP228 T01221033

10-Day Weather Forecast

Almanac

Astronomy

Feb. 08, 2016 Rise Set
Actual Time
Civil Twilight
Nautical Twilight
Astronomical Twilight
Moon
Length of Visible Light
Length of Day
Tomorrow will be .
, % of the Moon is Illuminated

Today's Extremes

State Highs State Lows

Community

WunderPhotos

Upload Photos

1,891,440 photos uploaded!

WunderBlog® & News

Nearby

Air Quality

  Air Quality AQ Index Pollutant
Not available.

Snow Depth

Station Depth Elevation

Earthquake Activity

City Distance Mag. Time & Date
Minimum magnitude displayed is 2.5.

Coastal Water Temperatures

Place Temperature

Stations

Nearby Weather Stations

Station Location Temp. Windchill Dew Point Humidity Wind Precip. Elev Updated Type
                   

Watches & Warnings

Wind Advisory
Issued: 7:34 AM CST Feb. 8, 2016 – National Weather Service

... Wind Advisory remains in effect until 6 PM CST this evening...

* timing... late morning through sunset.

* Winds... sustained 20 to 25 mph... with gusts above 25 to 30
mph.

* Impacts... vehicles and high profile vehicles should use
caution as sudden gusts can cause loss of control. Loose lawn
furniture or trash cans may be blow around.

Precautionary/preparedness actions...

A Wind Advisory means that winds of 20 mph are expected. Winds
this strong can make driving difficult... especially for high
profile vehicles. Use extra caution.